createdAt,value
2016-09-29T00:00:33.377Z,0
2016-09-29T00:01:34.222Z,0
2016-09-29T00:02:34.866Z,0
2016-09-29T00:03:35.563Z,0
2016-09-29T00:04:36.254Z,0
2016-09-29T00:05:36.952Z,0
2016-09-29T00:06:37.629Z,0
2016-09-29T00:07:38.341Z,0
2016-09-29T00:08:39.056Z,0
2016-09-29T00:09:39.766Z,0
2016-09-29T00:10:40.455Z,0
2016-09-29T00:11:41.183Z,0
2016-09-29T00:12:41.884Z,0
2016-09-29T00:13:42.596Z,0
2016-09-29T00:14:43.286Z,0
2016-09-29T00:15:44.006Z,0
2016-09-29T00:16:44.849Z,0
2016-09-29T00:17:45.491Z,0
2016-09-29T00:18:46.185Z,0
2016-09-29T00:19:46.907Z,0
2016-09-29T00:20:47.607Z,0
2016-09-29T00:21:48.304Z,0
2016-09-29T00:22:49.008Z,0
2016-09-29T00:23:49.756Z,0
2016-09-29T00:24:50.491Z,0
2016-09-29T00:25:51.247Z,0
2016-09-29T00:26:51.951Z,0
2016-09-29T00:27:52.643Z,0
2016-09-29T00:28:53.421Z,0
2016-09-29T00:29:54.142Z,0
2016-09-29T00:30:54.825Z,0
2016-09-29T00:31:55.517Z,0
2016-09-29T00:32:56.210Z,0
2016-09-29T00:33:56.894Z,0
2016-09-29T00:34:57.602Z,0
2016-09-29T00:35:58.289Z,0
2016-09-29T00:36:58.998Z,0
2016-09-29T00:37:59.699Z,0
2016-09-29T00:39:00.388Z,0
2016-09-29T00:40:01.080Z,0
2016-09-29T00:41:01.780Z,0
2016-09-29T00:42:02.475Z,0
2016-09-29T00:43:03.218Z,0
2016-09-29T00:44:04.164Z,0
2016-09-29T00:45:04.881Z,0
2016-09-29T00:46:05.683Z,0
2016-09-29T00:47:06.374Z,0
2016-09-29T00:48:07.073Z,0
2016-09-29T00:49:07.771Z,0
2016-09-29T00:50:08.525Z,0
2016-09-29T00:51:09.226Z,0
2016-09-29T00:52:09.915Z,0
2016-09-29T00:53:10.623Z,0
2016-09-29T00:54:11.337Z,0
2016-09-29T00:55:12.022Z,0
2016-09-29T00:56:12.724Z,0
2016-09-29T00:57:13.510Z,0
2016-09-29T00:58:14.346Z,0
2016-09-29T00:59:15.059Z,0
2016-09-29T01:00:15.753Z,0
2016-09-29T01:01:16.430Z,0
2016-09-29T01:02:17.315Z,0
2016-09-29T01:03:18.038Z,0
2016-09-29T01:04:18.914Z,0
2016-09-29T01:05:19.778Z,0
2016-09-29T01:06:20.652Z,0
2016-09-29T01:07:23.074Z,0
2016-09-29T01:08:23.693Z,0
2016-09-29T01:09:24.451Z,0
2016-09-29T01:10:25.200Z,0
2016-09-29T01:11:25.898Z,0
2016-09-29T01:12:26.617Z,0
2016-09-29T01:13:27.298Z,0
2016-09-29T01:14:27.988Z,0
2016-09-29T01:15:28.694Z,0
2016-09-29T01:16:29.403Z,0
2016-09-29T01:17:30.098Z,0
2016-09-29T01:18:30.804Z,0
2016-09-29T01:19:31.502Z,0
2016-09-29T01:20:32.206Z,0
2016-09-29T01:21:32.926Z,0
2016-09-29T01:22:33.645Z,0
2016-09-29T01:23:34.370Z,0
2016-09-29T01:24:35.062Z,0
2016-09-29T01:25:35.761Z,0
2016-09-29T01:26:36.438Z,0
2016-09-29T01:27:37.147Z,0
2016-09-29T01:28:37.834Z,0
2016-09-29T01:29:38.528Z,0
2016-09-29T01:30:39.224Z,0
2016-09-29T01:31:39.902Z,0
2016-09-29T01:32:40.639Z,0
2016-09-29T01:33:41.337Z,0
2016-09-29T01:34:42.021Z,0
2016-09-29T01:35:42.710Z,0
2016-09-29T01:36:43.411Z,0
2016-09-29T01:37:44.093Z,0
2016-09-29T01:38:44.798Z,0
2016-09-29T01:39:45.487Z,0
2016-09-29T01:40:46.215Z,0
2016-09-29T01:41:46.930Z,0
2016-09-29T01:42:47.634Z,0
2016-09-29T01:43:48.330Z,0
2016-09-29T01:44:49.036Z,0
2016-09-29T01:45:49.734Z,0
2016-09-29T01:46:50.415Z,0
2016-09-29T01:47:51.118Z,0
2016-09-29T01:48:51.795Z,0
2016-09-29T01:49:52.479Z,0
2016-09-29T01:50:53.173Z,0
2016-09-29T01:51:53.869Z,0
2016-09-29T01:52:54.556Z,0
2016-09-29T01:53:55.269Z,0
2016-09-29T01:54:55.989Z,0
2016-09-29T01:55:56.670Z,0
2016-09-29T01:56:57.400Z,0
2016-09-29T01:57:58.105Z,0
2016-09-29T01:58:58.790Z,0
2016-09-29T01:59:59.506Z,0
2016-09-29T02:01:00.175Z,0
2016-09-29T02:02:00.866Z,0
2016-09-29T02:03:01.568Z,0
2016-09-29T02:04:02.249Z,0
2016-09-29T02:05:02.967Z,0
2016-09-29T02:06:03.654Z,0
2016-09-29T02:07:04.379Z,0
2016-09-29T02:08:05.137Z,0
2016-09-29T02:09:05.856Z,0
2016-09-29T02:10:06.531Z,0
2016-09-29T02:11:07.252Z,0
2016-09-29T02:12:07.958Z,0
2016-09-29T02:13:08.651Z,0
2016-09-29T02:14:09.336Z,0
2016-09-29T02:15:10.041Z,0
2016-09-29T02:16:10.721Z,0
2016-09-29T02:17:11.412Z,0
2016-09-29T02:18:12.131Z,0
2016-09-29T02:19:12.816Z,0
2016-09-29T02:20:13.508Z,0
2016-09-29T02:21:14.195Z,0
2016-09-29T02:22:14.920Z,0
2016-09-29T02:23:15.607Z,0
2016-09-29T02:24:16.321Z,0
2016-09-29T02:25:17.001Z,0
2016-09-29T02:26:17.700Z,0
2016-09-29T02:27:18.381Z,0
2016-09-29T02:28:19.061Z,0
2016-09-29T02:29:19.777Z,0
2016-09-29T02:30:20.457Z,0
2016-09-29T02:31:21.145Z,0
2016-09-29T02:32:21.845Z,0
2016-09-29T02:33:22.527Z,0
2016-09-29T02:34:23.225Z,0
2016-09-29T02:35:23.939Z,0
2016-09-29T02:36:24.632Z,0
2016-09-29T02:37:25.317Z,0
2016-09-29T02:38:26.025Z,0
2016-09-29T02:39:26.715Z,0
2016-09-29T02:40:27.429Z,0
2016-09-29T02:41:28.107Z,0
2016-09-29T02:42:28.849Z,0
2016-09-29T02:43:29.543Z,0
2016-09-29T02:44:30.223Z,0
2016-09-29T02:45:30.904Z,0
2016-09-29T02:46:31.610Z,0
2016-09-29T02:47:32.303Z,0
2016-09-29T02:48:33.007Z,0
2016-09-29T02:49:33.687Z,0
2016-09-29T02:50:34.410Z,0
2016-09-29T02:51:35.125Z,0
2016-09-29T02:52:35.816Z,0
2016-09-29T02:53:36.528Z,0
2016-09-29T02:54:37.261Z,0
2016-09-29T02:55:37.957Z,0
2016-09-29T02:56:38.647Z,0
2016-09-29T02:57:39.350Z,0
2016-09-29T02:58:40.044Z,0
2016-09-29T02:59:40.726Z,0
2016-09-29T03:00:41.435Z,0
2016-09-29T03:01:42.153Z,0
2016-09-29T03:02:42.847Z,0
2016-09-29T03:03:43.536Z,0
2016-09-29T03:04:44.227Z,0
2016-09-29T03:05:44.928Z,0
2016-09-29T03:06:45.642Z,0
2016-09-29T03:07:46.331Z,0
2016-09-29T03:08:47.023Z,0
2016-09-29T03:09:47.704Z,0
2016-09-29T03:10:48.406Z,0
2016-09-29T03:11:49.097Z,0
2016-09-29T03:12:49.781Z,0
2016-09-29T03:13:50.476Z,0
2016-09-29T03:14:51.210Z,0
2016-09-29T03:15:51.897Z,0
2016-09-29T03:16:52.696Z,0
2016-09-29T03:17:53.383Z,0
2016-09-29T03:18:54.067Z,0
2016-09-29T03:19:54.766Z,0
2016-09-29T03:20:55.476Z,0
2016-09-29T03:21:56.253Z,0
2016-09-29T03:22:57.265Z,0
2016-09-29T03:23:58.137Z,0
2016-09-29T03:24:59.229Z,0
2016-09-29T03:25:59.894Z,0
2016-09-29T03:27:00.603Z,0
2016-09-29T03:28:01.289Z,0
2016-09-29T03:29:02.002Z,0
2016-09-29T03:30:02.760Z,0
2016-09-29T03:31:03.480Z,0
2016-09-29T03:32:04.256Z,0
2016-09-29T03:33:04.956Z,0
2016-09-29T03:34:05.650Z,0
2016-09-29T03:35:06.367Z,0
2016-09-29T03:36:07.064Z,0
2016-09-29T03:37:07.745Z,0
2016-09-29T03:38:08.441Z,0
2016-09-29T03:39:09.131Z,0
2016-09-29T03:40:09.842Z,0
2016-09-29T03:41:10.534Z,0
2016-09-29T03:42:11.231Z,0
2016-09-29T03:43:11.930Z,0
2016-09-29T03:44:12.647Z,0
2016-09-29T03:45:13.350Z,0
2016-09-29T03:46:14.067Z,0
2016-09-29T03:47:14.756Z,0
2016-09-29T03:48:15.464Z,0
2016-09-29T03:49:16.161Z,0
2016-09-29T03:50:16.867Z,0
2016-09-29T03:51:17.566Z,0
2016-09-29T03:52:18.284Z,0
2016-09-29T03:53:18.988Z,0
2016-09-29T03:54:19.676Z,0
2016-09-29T03:55:20.390Z,0
2016-09-29T03:56:21.076Z,0
2016-09-29T03:57:21.778Z,0
2016-09-29T03:58:22.471Z,0
2016-09-29T03:59:23.180Z,0
2016-09-29T04:00:23.859Z,0
2016-09-29T04:01:24.563Z,0
2016-09-29T04:02:25.249Z,0
2016-09-29T04:03:25.948Z,0
2016-09-29T04:04:26.650Z,0
2016-09-29T04:05:27.344Z,0
2016-09-29T04:06:28.034Z,0
2016-09-29T04:07:28.713Z,0
2016-09-29T04:08:29.415Z,0
2016-09-29T04:09:30.109Z,0
2016-09-29T04:10:30.794Z,0
2016-09-29T04:11:31.499Z,0
2016-09-29T04:12:32.203Z,0
2016-09-29T04:13:32.898Z,0
2016-09-29T04:14:33.600Z,0
2016-09-29T04:15:34.289Z,0
2016-09-29T04:16:34.968Z,0
2016-09-29T04:17:35.670Z,0
2016-09-29T04:18:36.366Z,0
2016-09-29T04:19:37.065Z,0
2016-09-29T04:20:37.769Z,0
2016-09-29T04:21:38.478Z,0
2016-09-29T04:22:39.150Z,0
2016-09-29T04:23:39.832Z,0
2016-09-29T04:24:40.533Z,0
2016-09-29T04:25:41.226Z,0
2016-09-29T04:26:41.924Z,0
2016-09-29T04:27:42.616Z,0
2016-09-29T04:28:43.309Z,0
2016-09-29T04:29:44.021Z,0
2016-09-29T04:30:44.725Z,0
2016-09-29T04:31:45.416Z,0
2016-09-29T04:32:46.104Z,0
2016-09-29T04:33:46.810Z,0
2016-09-29T04:34:47.503Z,0
2016-09-29T04:35:48.185Z,0
2016-09-29T04:36:48.877Z,0
2016-09-29T04:37:49.572Z,0
2016-09-29T04:38:50.268Z,0
2016-09-29T04:39:50.966Z,0
2016-09-29T04:40:51.670Z,0
2016-09-29T04:41:52.369Z,0
2016-09-29T04:42:53.061Z,0
2016-09-29T04:43:53.759Z,0
2016-09-29T04:44:54.457Z,0
2016-09-29T04:45:55.163Z,0
2016-09-29T04:46:55.859Z,0
2016-09-29T04:47:56.549Z,0
2016-09-29T04:48:57.237Z,0
2016-09-29T04:49:57.942Z,0
2016-09-29T04:50:58.637Z,0
2016-09-29T04:51:59.354Z,0
2016-09-29T04:53:00.051Z,0
2016-09-29T04:54:00.798Z,0
2016-09-29T04:55:01.501Z,0
2016-09-29T04:56:02.200Z,0
2016-09-29T04:57:02.918Z,0
2016-09-29T04:58:03.614Z,0
2016-09-29T04:59:04.309Z,0
2016-09-29T05:00:04.996Z,0
2016-09-29T05:01:05.709Z,0
2016-09-29T05:02:06.391Z,0
2016-09-29T05:03:07.079Z,0
2016-09-29T05:04:07.785Z,0
2016-09-29T05:05:08.499Z,0
2016-09-29T05:06:09.200Z,0
2016-09-29T05:07:09.899Z,0
2016-09-29T05:08:10.583Z,0
2016-09-29T05:09:11.812Z,0
2016-09-29T05:10:12.526Z,0
2016-09-29T05:11:13.209Z,0
2016-09-29T05:12:13.901Z,0
2016-09-29T05:13:14.607Z,0
2016-09-29T05:14:15.293Z,0
2016-09-29T05:15:15.979Z,0
2016-09-29T05:16:16.696Z,0
2016-09-29T05:17:17.398Z,0
2016-09-29T05:18:18.100Z,0
2016-09-29T05:19:18.786Z,0
2016-09-29T05:20:19.488Z,0
2016-09-29T05:21:20.712Z,0
2016-09-29T05:22:21.433Z,0
2016-09-29T05:23:22.115Z,0
2016-09-29T05:24:22.822Z,0
2016-09-29T05:25:23.761Z,0
2016-09-29T05:26:26.170Z,0
2016-09-29T05:27:28.634Z,0
2016-09-29T05:28:29.626Z,0
2016-09-29T05:29:31.098Z,0
2016-09-29T05:30:33.093Z,0
2016-09-29T05:31:34.454Z,0
2016-09-29T05:32:35.149Z,5
2016-09-29T05:33:36.150Z,5
2016-09-29T05:34:37.047Z,5
2016-09-29T05:35:37.946Z,5
2016-09-29T05:36:38.671Z,5
2016-09-29T05:37:39.362Z,5
2016-09-29T05:38:40.078Z,10
2016-09-29T05:39:40.793Z,10
2016-09-29T05:40:41.493Z,10
2016-09-29T05:41:42.201Z,10
2016-09-29T05:42:42.916Z,10
2016-09-29T05:43:43.619Z,15
2016-09-29T05:44:44.315Z,15
2016-09-29T05:45:45.053Z,15
2016-09-29T05:46:45.741Z,20
2016-09-29T05:47:46.473Z,25
2016-09-29T05:48:47.370Z,25
2016-09-29T05:49:48.075Z,20
2016-09-29T05:50:48.821Z,15
2016-09-29T05:51:49.719Z,15
2016-09-29T05:52:51.050Z,20
2016-09-29T05:53:52.892Z,20
2016-09-29T05:54:54.556Z,20
2016-09-29T05:55:56.099Z,20
2016-09-29T05:56:57.386Z,25
2016-09-29T05:57:58.910Z,25
2016-09-29T05:59:00.363Z,25
2016-09-29T06:00:01.908Z,25
2016-09-29T06:01:02.652Z,25
2016-09-29T06:02:03.363Z,30
2016-09-29T06:03:04.091Z,30
2016-09-29T06:04:04.855Z,30
2016-09-29T06:05:05.535Z,30
2016-09-29T06:06:06.255Z,30
2016-09-29T06:07:06.939Z,35
2016-09-29T06:08:07.624Z,35
2016-09-29T06:09:08.338Z,30
2016-09-29T06:10:09.040Z,40
2016-09-29T06:11:09.736Z,40
2016-09-29T06:12:10.413Z,40
2016-09-29T06:13:11.109Z,40
2016-09-29T06:14:11.824Z,45
2016-09-29T06:15:12.513Z,55
2016-09-29T06:16:13.234Z,60
2016-09-29T06:17:13.919Z,65
2016-09-29T06:18:14.621Z,70
2016-09-29T06:19:15.328Z,80
2016-09-29T06:20:16.034Z,85
2016-09-29T06:21:16.747Z,90
2016-09-29T06:22:17.439Z,100
2016-09-29T06:23:18.138Z,100
2016-09-29T06:24:18.832Z,105
2016-09-29T06:25:19.546Z,110
2016-09-29T06:26:20.260Z,115
2016-09-29T06:27:20.956Z,115
2016-09-29T06:28:21.658Z,115
2016-09-29T06:29:22.377Z,115
2016-09-29T06:30:23.068Z,110
2016-09-29T06:31:23.796Z,100
2016-09-29T06:32:24.501Z,95
2016-09-29T06:33:25.223Z,95
2016-09-29T06:34:25.902Z,95
2016-09-29T06:35:26.630Z,100
2016-09-29T06:36:27.345Z,105
2016-09-29T06:37:28.078Z,100
2016-09-29T06:38:28.794Z,90
2016-09-29T06:39:29.529Z,85
2016-09-29T06:40:30.242Z,75
2016-09-29T06:41:30.925Z,65
2016-09-29T06:42:31.634Z,65
2016-09-29T06:43:32.320Z,70
2016-09-29T06:44:33.049Z,65
2016-09-29T06:45:33.720Z,65
2016-09-29T06:46:34.450Z,65
2016-09-29T06:47:35.153Z,65
2016-09-29T06:48:35.836Z,70
2016-09-29T06:49:36.549Z,75
2016-09-29T06:50:37.245Z,80
2016-09-29T06:51:37.948Z,90
2016-09-29T06:52:38.643Z,85
2016-09-29T06:53:39.382Z,80
2016-09-29T06:54:40.067Z,90
2016-09-29T06:55:40.766Z,90
2016-09-29T06:56:41.556Z,90
2016-09-29T06:57:42.243Z,90
2016-09-29T06:58:42.964Z,90
2016-09-29T06:59:43.657Z,95
2016-09-29T07:00:44.360Z,100
2016-09-29T07:01:45.044Z,100
2016-09-29T07:02:45.759Z,100
2016-09-29T07:03:46.458Z,95
2016-09-29T07:04:47.153Z,90
2016-09-29T07:05:47.849Z,85
2016-09-29T07:06:48.570Z,85
2016-09-29T07:07:49.272Z,80
2016-09-29T07:08:49.964Z,85
2016-09-29T07:09:50.667Z,90
2016-09-29T07:10:51.387Z,100
2016-09-29T07:11:52.103Z,105
2016-09-29T07:12:52.783Z,105
2016-09-29T07:13:53.484Z,115
2016-09-29T07:14:54.210Z,115
2016-09-29T07:15:54.903Z,110
2016-09-29T07:16:55.598Z,115
2016-09-29T07:17:56.305Z,120
2016-09-29T07:18:56.991Z,120
2016-09-29T07:19:57.717Z,120
2016-09-29T07:20:58.418Z,125
2016-09-29T07:21:59.111Z,125
2016-09-29T07:22:59.811Z,140
2016-09-29T07:24:00.523Z,150
2016-09-29T07:25:01.224Z,160
2016-09-29T07:26:01.916Z,155
2016-09-29T07:27:02.616Z,155
2016-09-29T07:28:03.305Z,150
2016-09-29T07:29:04.019Z,140
2016-09-29T07:30:04.723Z,130
2016-09-29T07:31:05.416Z,115
2016-09-29T07:32:06.140Z,125
2016-09-29T07:33:06.863Z,150
2016-09-29T07:34:07.569Z,165
2016-09-29T07:35:08.258Z,175
2016-09-29T07:36:08.944Z,190
2016-09-29T07:37:10.098Z,210
2016-09-29T07:38:10.737Z,215
2016-09-29T07:39:11.426Z,200
2016-09-29T07:40:12.186Z,205
2016-09-29T07:41:12.912Z,220
2016-09-29T07:42:13.635Z,210
2016-09-29T07:43:14.393Z,205
2016-09-29T07:44:15.093Z,190
2016-09-29T07:45:15.797Z,180
2016-09-29T07:46:16.519Z,155
2016-09-29T07:47:17.229Z,165
2016-09-29T07:48:17.928Z,175
2016-09-29T07:49:18.611Z,185
2016-09-29T07:50:19.351Z,160
2016-09-29T07:51:20.043Z,155
2016-09-29T07:52:20.755Z,160
2016-09-29T07:53:21.527Z,165
2016-09-29T07:54:22.229Z,180
2016-09-29T07:55:22.940Z,190
2016-09-29T07:56:23.666Z,205
2016-09-29T07:57:24.434Z,205
2016-09-29T07:58:25.135Z,210
2016-09-29T07:59:25.841Z,200
2016-09-29T08:00:26.571Z,220
2016-09-29T08:01:27.265Z,240
2016-09-29T08:02:27.986Z,260
2016-09-29T08:03:28.683Z,250
2016-09-29T08:04:29.385Z,230
2016-09-29T08:05:30.090Z,235
2016-09-29T08:06:30.809Z,240
2016-09-29T08:07:31.506Z,235
2016-09-29T08:08:32.218Z,240
2016-09-29T08:09:32.945Z,280
2016-09-29T08:10:33.642Z,240
2016-09-29T08:11:34.348Z,240
2016-09-29T08:12:35.094Z,240
2016-09-29T08:13:35.845Z,240
2016-09-29T08:14:36.711Z,260
2016-09-29T08:15:37.457Z,280
2016-09-29T08:16:38.265Z,300
2016-09-29T08:17:38.971Z,340
2016-09-29T08:18:39.667Z,365
2016-09-29T08:19:40.423Z,345
2016-09-29T08:20:41.400Z,345
2016-09-29T08:21:42.243Z,340
2016-09-29T08:22:42.999Z,325
2016-09-29T08:23:43.779Z,320
2016-09-29T08:24:44.503Z,310
2016-09-29T08:25:45.349Z,290
2016-09-29T08:26:46.426Z,270
2016-09-29T08:27:47.315Z,255
2016-09-29T08:28:48.015Z,270
2016-09-29T08:29:48.712Z,300
2016-09-29T08:30:49.565Z,355
2016-09-29T08:31:50.613Z,485
2016-09-29T08:32:51.336Z,535
2016-09-29T08:33:52.300Z,445
2016-09-29T08:34:52.994Z,420
2016-09-29T08:35:53.731Z,465
2016-09-29T08:36:54.443Z,400
2016-09-29T08:37:55.138Z,405
2016-09-29T08:38:55.959Z,400
2016-09-29T08:39:56.661Z,400
2016-09-29T08:40:57.363Z,420
2016-09-29T08:41:58.058Z,505
2016-09-29T08:42:58.766Z,765
2016-09-29T08:43:59.482Z,1235
2016-09-29T08:45:00.215Z,1435
2016-09-29T08:46:00.933Z,1230
2016-09-29T08:47:01.676Z,930
2016-09-29T08:48:02.387Z,945
2016-09-29T08:49:03.103Z,590
2016-09-29T08:50:03.822Z,475
2016-09-29T08:51:04.548Z,620
2016-09-29T08:52:05.244Z,410
2016-09-29T08:53:05.957Z,410
2016-09-29T08:54:06.682Z,370
2016-09-29T08:55:07.409Z,435
2016-09-29T08:56:08.116Z,370
2016-09-29T08:57:08.835Z,285
2016-09-29T08:58:09.563Z,275
2016-09-29T08:59:10.282Z,410
2016-09-29T09:00:11.026Z,490
2016-09-29T09:01:11.716Z,375
2016-09-29T09:02:12.432Z,395
2016-09-29T09:03:13.144Z,430
2016-09-29T09:04:13.842Z,395
2016-09-29T09:05:14.554Z,320
2016-09-29T09:06:15.260Z,275
2016-09-29T09:07:15.937Z,265
2016-09-29T09:08:17.559Z,255
2016-09-29T09:09:18.273Z,235
2016-09-29T09:10:18.991Z,240
2016-09-29T09:11:19.729Z,275
2016-09-29T09:12:20.449Z,260
2016-09-29T09:13:21.170Z,225
2016-09-29T09:14:21.871Z,235
2016-09-29T09:15:22.565Z,385
2016-09-29T09:16:23.287Z,425
2016-09-29T09:17:24.015Z,485
2016-09-29T09:18:24.699Z,305
2016-09-29T09:19:25.420Z,245
2016-09-29T09:20:26.134Z,300
2016-09-29T09:21:26.866Z,320
2016-09-29T09:22:27.577Z,355
2016-09-29T09:23:28.304Z,420
2016-09-29T09:24:29.039Z,440
2016-09-29T09:25:29.761Z,420
2016-09-29T09:26:30.491Z,430
2016-09-29T09:27:31.193Z,420
2016-09-29T09:28:31.929Z,370
2016-09-29T09:29:32.644Z,390
2016-09-29T09:30:33.372Z,360
2016-09-29T09:31:34.079Z,405
2016-09-29T09:32:34.777Z,435
2016-09-29T09:33:35.492Z,445
2016-09-29T09:34:36.216Z,425
2016-09-29T09:35:36.933Z,465
2016-09-29T09:36:37.657Z,475
2016-09-29T09:37:38.377Z,490
2016-09-29T09:38:39.071Z,450
2016-09-29T09:39:39.779Z,475
2016-09-29T09:40:40.489Z,470
2016-09-29T09:41:41.267Z,465
2016-09-29T09:42:41.996Z,460
2016-09-29T09:43:42.708Z,455
2016-09-29T09:44:43.406Z,455
2016-09-29T09:45:44.198Z,445
2016-09-29T09:46:45.001Z,435
2016-09-29T09:47:45.662Z,420
2016-09-29T09:48:46.385Z,395
2016-09-29T09:49:47.071Z,395
2016-09-29T09:50:47.774Z,395
2016-09-29T09:51:48.473Z,405
2016-09-29T09:52:49.187Z,405
2016-09-29T09:53:49.902Z,430
2016-09-29T09:54:50.628Z,430
2016-09-29T09:55:51.347Z,425
2016-09-29T09:56:52.070Z,425
2016-09-29T09:57:52.794Z,420
2016-09-29T09:58:53.493Z,415
2016-09-29T09:59:54.200Z,415
2016-09-29T10:00:54.911Z,405
2016-09-29T10:01:55.632Z,390
2016-09-29T10:02:56.323Z,390
2016-09-29T10:03:57.046Z,400
2016-09-29T10:04:57.760Z,410
2016-09-29T10:05:58.503Z,430
2016-09-29T10:06:59.208Z,395
2016-09-29T10:08:00.182Z,385
2016-09-29T10:09:00.907Z,405
2016-09-29T10:10:01.606Z,405
2016-09-29T10:11:02.336Z,400
2016-09-29T10:12:03.051Z,390
2016-09-29T10:13:03.813Z,375
2016-09-29T10:14:04.514Z,365
2016-09-29T10:15:05.272Z,350
2016-09-29T10:16:05.989Z,345
2016-09-29T10:17:06.695Z,345
2016-09-29T10:18:07.554Z,355
2016-09-29T10:19:08.471Z,355
2016-09-29T10:20:09.482Z,345
2016-09-29T10:21:10.207Z,325
2016-09-29T10:22:11.037Z,315
2016-09-29T10:23:11.701Z,295
2016-09-29T10:24:12.426Z,290
2016-09-29T10:25:13.149Z,270
2016-09-29T10:26:13.871Z,270
2016-09-29T10:27:14.604Z,270
2016-09-29T10:28:15.344Z,300
2016-09-29T10:29:16.066Z,290
2016-09-29T10:30:16.819Z,290
2016-09-29T10:31:17.544Z,285
2016-09-29T10:32:18.313Z,300
2016-09-29T10:33:19.014Z,320
2016-09-29T10:34:19.759Z,335
2016-09-29T10:35:20.458Z,350
2016-09-29T10:36:21.202Z,360
2016-09-29T10:37:21.908Z,365
2016-09-29T10:38:22.680Z,375
2016-09-29T10:39:23.377Z,365
2016-09-29T10:40:24.079Z,355
2016-09-29T10:41:24.777Z,300
2016-09-29T10:42:25.473Z,310
2016-09-29T10:43:26.684Z,380
2016-09-29T10:44:27.360Z,380
2016-09-29T10:45:28.191Z,375
2016-09-29T10:46:28.891Z,355
2016-09-29T10:47:29.598Z,365
2016-09-29T10:48:30.307Z,335
2016-09-29T10:49:31.058Z,325
2016-09-29T10:50:31.805Z,390
2016-09-29T10:51:32.554Z,490
2016-09-29T10:52:33.388Z,545
2016-09-29T10:53:34.155Z,540
2016-09-29T10:54:34.862Z,500
2016-09-29T10:55:35.582Z,485
2016-09-29T10:56:36.317Z,455
2016-09-29T10:57:37.150Z,460
2016-09-29T10:58:37.865Z,465
2016-09-29T10:59:38.577Z,455
2016-09-29T11:00:39.388Z,450
2016-09-29T11:01:40.135Z,425
2016-09-29T11:02:40.860Z,410
2016-09-29T11:03:41.582Z,430
2016-09-29T11:04:42.302Z,405
2016-09-29T11:05:43.022Z,430
2016-09-29T11:06:43.713Z,400
2016-09-29T11:07:44.431Z,370
2016-09-29T11:08:45.149Z,330
2016-09-29T11:09:45.859Z,305
2016-09-29T11:10:46.545Z,275
2016-09-29T11:11:47.259Z,310
2016-09-29T11:12:47.985Z,300
2016-09-29T11:13:48.710Z,335
2016-09-29T11:14:49.426Z,275
2016-09-29T11:15:50.161Z,345
2016-09-29T11:16:50.867Z,435
2016-09-29T11:17:51.560Z,405
2016-09-29T11:18:52.270Z,350
2016-09-29T11:19:52.963Z,345
2016-09-29T11:20:53.677Z,375
2016-09-29T11:21:54.400Z,380
2016-09-29T11:22:55.129Z,350
2016-09-29T11:23:55.851Z,350
2016-09-29T11:24:56.566Z,380
2016-09-29T11:25:57.281Z,390
2016-09-29T11:26:58.013Z,405
2016-09-29T11:27:58.719Z,410
2016-09-29T11:28:59.419Z,410
2016-09-29T11:30:00.138Z,405
2016-09-29T11:31:00.847Z,395
2016-09-29T11:32:01.537Z,350
2016-09-29T11:33:02.246Z,390
2016-09-29T11:34:02.976Z,395
2016-09-29T11:35:03.669Z,395
2016-09-29T11:36:04.379Z,395
2016-09-29T11:37:05.104Z,385
2016-09-29T11:38:05.812Z,375
2016-09-29T11:39:06.515Z,365
2016-09-29T11:40:07.266Z,370
2016-09-29T11:41:07.989Z,385
2016-09-29T11:42:08.738Z,390
2016-09-29T11:43:09.437Z,395
2016-09-29T11:44:10.149Z,400
2016-09-29T11:45:10.855Z,415
2016-09-29T11:46:11.561Z,420
2016-09-29T11:47:12.265Z,385
2016-09-29T11:48:12.972Z,410
2016-09-29T11:49:13.677Z,390
2016-09-29T11:50:14.391Z,380
2016-09-29T11:51:15.099Z,335
2016-09-29T11:52:15.788Z,270
2016-09-29T11:53:16.489Z,275
2016-09-29T11:54:17.207Z,210
2016-09-29T11:55:17.915Z,225
2016-09-29T11:56:18.611Z,235
2016-09-29T11:57:19.306Z,220
2016-09-29T11:58:20.003Z,200
2016-09-29T11:59:20.775Z,190
2016-09-29T12:00:21.555Z,200
2016-09-29T12:01:22.248Z,220
2016-09-29T12:02:22.959Z,210
2016-09-29T12:03:23.671Z,185
2016-09-29T12:04:24.408Z,175
2016-09-29T12:05:25.137Z,175
2016-09-29T12:06:25.845Z,180
2016-09-29T12:07:26.570Z,165
2016-09-29T12:08:27.250Z,160
2016-09-29T12:09:28.024Z,160
2016-09-29T12:10:28.666Z,150
2016-09-29T12:11:29.366Z,145
2016-09-29T12:12:30.076Z,140
2016-09-29T12:13:30.795Z,140
2016-09-29T12:14:31.469Z,140
2016-09-29T12:15:32.211Z,135
2016-09-29T12:16:32.933Z,130
2016-09-29T12:17:33.648Z,130
2016-09-29T12:18:34.392Z,140
2016-09-29T12:19:35.091Z,155
2016-09-29T12:20:35.847Z,170
2016-09-29T12:21:36.672Z,185
2016-09-29T12:22:37.379Z,190
2016-09-29T12:23:38.086Z,180
2016-09-29T12:24:38.791Z,170
2016-09-29T12:25:39.494Z,160
2016-09-29T12:26:40.199Z,155
2016-09-29T12:27:40.910Z,135
2016-09-29T12:28:41.618Z,145
2016-09-29T12:29:42.379Z,145
2016-09-29T12:30:43.113Z,145
2016-09-29T12:31:43.813Z,155
2016-09-29T12:32:44.603Z,190
2016-09-29T12:33:45.420Z,215
2016-09-29T12:34:46.142Z,185
2016-09-29T12:35:46.856Z,205
2016-09-29T12:36:47.609Z,265
2016-09-29T12:37:48.343Z,265
2016-09-29T12:38:49.051Z,315
2016-09-29T12:39:49.764Z,285
2016-09-29T12:40:50.480Z,245
2016-09-29T12:41:51.197Z,285
2016-09-29T12:42:51.913Z,350
2016-09-29T12:43:52.637Z,410
2016-09-29T12:44:53.352Z,335
2016-09-29T12:45:54.069Z,300
2016-09-29T12:46:54.788Z,275
2016-09-29T12:47:55.503Z,315
2016-09-29T12:48:56.242Z,320
2016-09-29T12:49:56.960Z,345
2016-09-29T12:50:57.692Z,320
2016-09-29T12:51:58.395Z,265
2016-09-29T12:52:59.107Z,235
2016-09-29T12:53:59.829Z,240
2016-09-29T12:55:00.554Z,225
2016-09-29T12:56:01.269Z,210
2016-09-29T12:57:01.978Z,235
2016-09-29T12:58:02.754Z,250
2016-09-29T12:59:03.502Z,205
2016-09-29T13:00:04.218Z,260
2016-09-29T13:01:04.945Z,250
2016-09-29T13:02:05.674Z,220
2016-09-29T13:03:06.391Z,245
2016-09-29T13:04:07.098Z,265
2016-09-29T13:05:07.799Z,200
2016-09-29T13:06:08.512Z,185
2016-09-29T13:07:09.239Z,265
2016-09-29T13:08:09.966Z,235
2016-09-29T13:09:10.691Z,260
2016-09-29T13:10:11.445Z,285
2016-09-29T13:11:12.132Z,225
2016-09-29T13:12:12.854Z,250
2016-09-29T13:13:13.569Z,205
2016-09-29T13:14:14.360Z,195
2016-09-29T13:15:15.072Z,180
2016-09-29T13:16:15.788Z,195
2016-09-29T13:17:16.487Z,260
2016-09-29T13:18:17.190Z,240
2016-09-29T13:19:17.893Z,225
2016-09-29T13:20:18.597Z,220
2016-09-29T13:21:19.294Z,220
2016-09-29T13:22:19.984Z,225
2016-09-29T13:23:20.756Z,230
2016-09-29T13:24:21.493Z,215
2016-09-29T13:25:22.205Z,225
2016-09-29T13:26:22.925Z,230
2016-09-29T13:27:23.624Z,230
2016-09-29T13:28:24.329Z,210
2016-09-29T13:29:25.031Z,220
2016-09-29T13:30:25.939Z,240
2016-09-29T13:31:26.638Z,230
2016-09-29T13:32:27.339Z,250
2016-09-29T13:33:28.039Z,250
2016-09-29T13:34:28.725Z,270
2016-09-29T13:35:29.444Z,225
2016-09-29T13:36:30.368Z,230
2016-09-29T13:37:31.083Z,205
2016-09-29T13:38:31.804Z,205
2016-09-29T13:39:32.528Z,185
2016-09-29T13:40:33.225Z,185
2016-09-29T13:41:33.932Z,185
2016-09-29T13:42:34.659Z,195
2016-09-29T13:43:35.392Z,200
2016-09-29T13:44:36.092Z,205
2016-09-29T13:45:36.797Z,205
2016-09-29T13:46:37.608Z,235
2016-09-29T13:47:38.320Z,235
2016-09-29T13:48:39.013Z,195
2016-09-29T13:49:40.039Z,180
2016-09-29T13:50:40.734Z,175
2016-09-29T13:51:41.448Z,170
2016-09-29T13:52:42.154Z,170
2016-09-29T13:53:42.878Z,140
2016-09-29T13:54:43.606Z,115
2016-09-29T13:55:44.326Z,90
2016-09-29T13:56:45.023Z,90
2016-09-29T13:57:45.739Z,95
2016-09-29T13:58:46.457Z,100
2016-09-29T13:59:47.163Z,105
2016-09-29T14:00:47.913Z,90
2016-09-29T14:01:48.636Z,85
2016-09-29T14:02:49.352Z,90
2016-09-29T14:03:50.035Z,85
2016-09-29T14:04:50.751Z,110
2016-09-29T14:05:51.432Z,145
2016-09-29T14:06:52.151Z,90
2016-09-29T14:07:52.855Z,70
2016-09-29T14:08:53.554Z,80
2016-09-29T14:09:54.261Z,120
2016-09-29T14:10:54.973Z,150
2016-09-29T14:11:55.668Z,130
2016-09-29T14:12:56.378Z,90
2016-09-29T14:13:57.067Z,75
2016-09-29T14:14:57.784Z,50
2016-09-29T14:15:58.468Z,50
2016-09-29T14:16:59.230Z,40
2016-09-29T14:18:00.010Z,40
2016-09-29T14:19:00.704Z,55
2016-09-29T14:20:01.407Z,65
2016-09-29T14:21:02.119Z,85
2016-09-29T14:22:02.810Z,80
2016-09-29T14:23:03.577Z,95